Decoded Metar for PAKP (ANAKTUVUK PASS in AK, USA) (IATA:AKP) | Meteo·Mobile Aviation Weather
aviador You're here:

PAKP Decoded Metar

ANAKTUVUK PASS in AK, USA
Report Time2019-07-16 22:56:00
UTC Time2019-07-16 23:06:17
Flight Rules vfr VFR
Wind200° at 06 kt
W.Decomp.*RWY 20: 5.6 kt HW 2.2 kt LCW
Visibility9999 m
Phenomena:N/A
Clouds:N/A
Expected CloudBase > 6,400 ft AGL from Temp-Dew spread
CeilingNone
Temp23°C (ISA +12)
Dew Point07°C (36% RH)
AAT20.2°C
QNH1002 hPa
Density Alt4,026 ft
Elevation2,106 ft
Report Wrong Elevation
Raw Report
PAKP 162256Z AUTO 20006KT 10SM CLR 23/07 A2958 RMK AO2 SLP028
T02330067=

Extra information for PAKP:More info

Metar Taf Metar & Taf Last 4 Metars F.Rules Stats Wind Profile Meteogram Temp Stats Airport Information Weather charts Add Link Nearby VenuesMetar ALERT Operation Metar Decoded Social comments

AIRNAV info for PAKP